Time;durP1;ratioP1;P1;durP2;ratioP2;P2;SDS_P1;SDS_P2;PMS_P1;PMS_P2;Temp;Humidity;BMP_temperature;BMP_pressure;BME280_temperature;BME280_humidity;BME280_pressure;Samples;Min_cycle;Max_cycle;Signal;HPM_P1;HPM_P2
2023/08/14 00:02:06;;;;;;;13.10;11.80;;;;;;;20.83;100.00;156718.69;5031048;28;20481;-78
2023/08/14 00:04:33;;;;;;;12.93;11.73;;;;;;;20.84;100.00;156721.28;5029141;28;20477;-78
2023/08/14 00:07:00;;;;;;;11.43;10.43;;;;;;;20.82;100.00;156717.38;5047545;28;20497;-78
2023/08/14 00:09:26;;;;;;;11.60;10.40;;;;;;;20.81;100.00;156714.75;5019146;28;20454;-78
2023/08/14 00:11:54;;;;;;;11.50;10.40;;;;;;;20.80;100.00;156712.16;5049139;28;20539;-77
2023/08/14 00:14:21;;;;;;;12.00;10.80;;;;;;;20.83;100.00;156718.69;5048770;28;20455;-78
2023/08/14 00:16:47;;;;;;;11.37;10.27;;;;;;;20.84;100.00;156722.59;5039184;28;20565;-78
2023/08/14 00:19:14;;;;;;;13.77;12.30;;;;;;;20.86;100.00;156726.53;5047634;28;20462;-78
2023/08/14 00:21:40;;;;;;;12.63;11.43;;;;;;;20.87;100.00;156730.41;5039060;28;20592;-78
2023/08/14 00:24:07;;;;;;;12.60;11.30;;;;;;;20.92;100.00;156742.16;5023613;28;20459;-78
2023/08/14 00:26:34;;;;;;;12.33;11.20;;;;;;;20.90;100.00;156736.94;5034853;28;20463;-78
2023/08/14 00:29:03;;;;;;;11.10;10.00;;;;;;;20.90;100.00;156738.25;5024175;28;20981;-78
2023/08/14 00:31:29;;;;;;;12.47;11.30;;;;;;;20.90;100.00;156736.94;5049393;28;20465;-78
2023/08/14 00:33:56;;;;;;;12.80;11.60;;;;;;;20.91;100.00;156739.56;5029677;28;20481;-78
2023/08/14 00:36:22;;;;;;;13.00;11.80;;;;;;;20.92;100.00;156742.16;5047236;28;20558;-78
2023/08/14 00:38:49;;;;;;;12.20;11.10;;;;;;;20.91;100.00;156739.56;5025654;28;21094;-78
2023/08/14 00:41:15;;;;;;;12.67;11.47;;;;;;;20.93;100.00;156744.78;5013884;28;20465;-78
2023/08/14 00:43:42;;;;;;;12.23;11.13;;;;;;;20.94;100.00;156748.69;5032004;28;20471;-78
2023/08/14 00:46:10;;;;;;;10.90;9.80;;;;;;;20.92;100.00;156742.16;5028786;28;20458;-78
2023/08/14 00:48:37;;;;;;;11.33;10.23;;;;;;;20.91;100.00;156740.88;5029317;28;20458;-78
2023/08/14 00:51:04;;;;;;;10.60;9.50;;;;;;;20.90;100.00;156738.25;5018622;28;20521;-78
2023/08/14 00:53:31;;;;;;;11.83;10.63;;;;;;;20.91;100.00;156739.56;5026736;28;20522;-78
2023/08/14 00:55:58;;;;;;;11.03;10.03;;;;;;;20.91;100.00;156739.56;5027058;28;20462;-78
2023/08/14 00:58:25;;;;;;;12.07;11.07;;;;;;;20.94;100.00;156748.69;5037571;28;20516;-77
2023/08/14 01:00:52;;;;;;;11.90;10.80;;;;;;;20.96;100.00;156752.63;5014982;28;20463;-78
2023/08/14 01:03:21;;;;;;;12.17;9.57;;;;;;;20.94;100.00;156748.69;5015160;28;20993;-78
2023/08/14 01:05:47;;;;;;;13.00;10.80;;;;;;;20.96;100.00;156753.94;5026614;28;20455;-78
2023/08/14 01:08:14;;;;;;;12.37;11.17;;;;;;;20.97;100.00;156755.25;5011142;28;20512;-78
2023/08/14 01:10:50;;;;;;;13.30;11.00;;;;;;;20.99;100.00;156760.44;5028843;28;20474;-78
2023/08/14 01:13:20;;;;;;;12.87;11.70;;;;;;;20.98;100.00;156759.13;5031690;28;20438;-78
2023/08/14 01:15:51;;;;;;;12.60;11.40;;;;;;;20.98;100.00;156759.13;5028478;28;20466;-78
2023/08/14 01:18:19;;;;;;;10.57;9.63;;;;;;;21.00;100.00;156763.03;5027207;28;20451;-78
2023/08/14 01:20:58;;;;;;;11.17;10.07;;;;;;;20.99;100.00;156760.44;5014116;28;20455;-78
2023/08/14 01:23:33;;;;;;;10.70;9.70;;;;;;;20.98;100.00;156759.13;5048869;28;20850;-78
2023/08/14 01:26:02;;;;;;;11.10;9.87;;;;;;;20.99;100.00;156761.75;5010581;28;21019;-78
2023/08/14 01:28:29;;;;;;;11.67;10.10;;;;;;;21.00;100.00;156764.34;5046154;28;20455;-78
2023/08/14 01:30:57;;;;;;;11.00;10.00;;;;;;;21.00;100.00;156763.03;5030948;28;20977;-78
2023/08/14 01:33:24;;;;;;;12.83;9.10;;;;;;;21.02;100.00;156768.28;5028306;28;20471;-78
2023/08/14 01:35:52;;;;;;;10.20;9.20;;;;;;;21.01;100.00;156766.97;5030483;28;20459;-77
2023/08/14 01:38:22;;;;;;;10.27;9.37;;;;;;;20.98;100.00;156759.13;5028230;28;20921;-78
2023/08/14 01:40:54;;;;;;;10.70;9.30;;;;;;;20.98;100.00;156757.81;5030923;28;20459;-78
2023/08/14 01:43:27;;;;;;;9.70;8.70;;;;;;;20.95;100.00;156750.00;5030982;28;20829;-77
2023/08/14 01:45:54;;;;;;;9.07;8.20;;;;;;;20.96;100.00;156752.63;5039893;28;20471;-77
2023/08/14 01:48:22;;;;;;;12.47;9.10;;;;;;;20.94;100.00;156747.41;5059756;28;20461;-78
2023/08/14 01:50:50;;;;;;;9.20;7.87;;;;;;;20.93;100.00;156746.09;5033388;28;20547;-78
2023/08/14 01:53:16;;;;;;;9.63;8.17;;;;;;;20.90;100.00;156738.25;5043549;28;20466;-77
2023/08/14 01:55:43;;;;;;;8.60;7.70;;;;;;;20.84;100.00;156722.59;5011536;28;20452;-77
2023/08/14 01:58:11;;;;;;;7.00;5.50;;;;;;;20.86;100.00;156726.53;5030692;28;20451;-77
2023/08/14 02:00:38;;;;;;;6.40;5.77;;;;;;;20.83;100.00;156718.69;5053004;28;20958;-77
2023/08/14 02:03:06;;;;;;;5.07;4.67;;;;;;;20.77;100.00;156703.03;5042851;28;20467;-77
2023/08/14 02:05:32;;;;;;;5.33;4.63;;;;;;;20.74;100.00;156695.19;5025362;28;20985;-77
2023/08/14 02:08:01;;;;;;;5.70;5.20;;;;;;;20.74;100.00;156695.19;5026743;28;21050;-77
2023/08/14 02:10:27;;;;;;;4.60;4.20;;;;;;;20.71;100.00;156687.34;5024178;28;20481;-77
2023/08/14 02:12:54;;;;;;;4.87;4.27;;;;;;;20.70;100.00;156686.09;5026237;28;20577;-77
2023/08/14 02:15:22;;;;;;;4.83;4.40;;;;;;;20.64;100.00;156670.41;5047860;28;20459;-77
2023/08/14 02:17:52;;;;;;;5.13;4.63;;;;;;;20.61;100.00;156663.91;5013621;28;20435;-76
2023/08/14 02:20:19;;;;;;;5.77;4.57;;;;;;;20.59;100.00;156658.69;5022325;28;20617;-76
2023/08/14 02:22:46;;;;;;;5.07;4.57;;;;;;;20.55;100.00;156648.22;5046557;28;20475;-76
2023/08/14 02:25:12;;;;;;;4.63;3.53;;;;;;;20.50;100.00;156635.19;5011623;28;20546;-76
2023/08/14 02:27:39;;;;;;;6.70;4.00;;;;;;;20.43;100.00;156616.94;5036148;28;20825;-76
2023/08/14 02:30:07;;;;;;;4.20;3.80;;;;;;;20.38;100.00;156602.59;5025383;28;20579;-77
2023/08/14 02:32:33;;;;;;;3.70;3.37;;;;;;;20.40;100.00;156607.78;5028783;28;20481;-76
2023/08/14 02:35:01;;;;;;;5.47;3.97;;;;;;;20.35;100.00;156596.06;5035856;28;20483;-76
2023/08/14 02:37:28;;;;;;;6.10;3.40;;;;;;;20.30;100.00;156583.03;5013543;28;20467;-76
2023/08/14 02:39:54;;;;;;;4.63;4.00;;;;;;;20.21;100.00;156558.19;5017952;28;20457;-76
2023/08/14 02:42:21;;;;;;;5.30;4.67;;;;;;;20.12;100.00;156536.00;5046251;28;20451;-76
2023/08/14 02:44:48;;;;;;;5.93;5.20;;;;;;;20.12;100.00;156536.00;5030002;28;20479;-76
2023/08/14 02:47:15;;;;;;;6.50;5.90;;;;;;;20.10;100.00;156529.47;5007510;28;20492;-76
2023/08/14 02:49:41;;;;;;;7.50;6.80;;;;;;;19.99;100.00;156502.09;5042898;28;20772;-76
2023/08/14 02:52:09;;;;;;;7.20;6.50;;;;;;;19.98;100.00;156499.50;5038665;28;20455;-76
2023/08/14 02:54:36;;;;;;;6.90;6.20;;;;;;;19.93;100.00;156486.47;5045497;28;20489;-77
2023/08/14 02:57:03;;;;;;;7.07;6.37;;;;;;;19.90;100.00;156479.97;5026425;28;20473;-76
2023/08/14 02:59:29;;;;;;;6.23;5.73;;;;;;;19.89;100.00;156477.34;5035200;28;20460;-76
2023/08/14 03:01:56;;;;;;;7.37;6.57;;;;;;;19.85;100.00;156465.63;5027423;28;20468;-76
2023/08/14 03:04:22;;;;;;;10.53;6.30;;;;;;;19.84;100.00;156464.31;5004755;28;20476;-77
2023/08/14 03:06:49;;;;;;;7.60;6.77;;;;;;;19.88;100.00;156473.44;5031207;28;20459;-76
2023/08/14 03:09:17;;;;;;;7.37;6.67;;;;;;;19.92;100.00;156483.84;5040956;28;20458;-77
2023/08/14 03:11:43;;;;;;;6.70;6.10;;;;;;;19.94;100.00;156489.06;5034145;28;20472;-77
2023/08/14 03:14:10;;;;;;;7.50;6.43;;;;;;;19.99;100.00;156502.09;5023782;28;20926;-77
2023/08/14 03:16:37;;;;;;;6.93;6.10;;;;;;;19.98;100.00;156499.50;5020970;28;20440;-77
2023/08/14 03:19:03;;;;;;;8.43;6.47;;;;;;;19.91;100.00;156481.22;5026848;28;20454;-77
2023/08/14 03:21:30;;;;;;;6.37;5.77;;;;;;;19.87;100.00;156472.13;5036879;28;20733;-77
2023/08/14 03:23:56;;;;;;;6.27;5.67;;;;;;;19.93;100.00;156486.47;5006496;28;20472;-77
2023/08/14 03:26:24;;;;;;;7.43;5.50;;;;;;;19.92;100.00;156483.84;5012412;28;20442;-77
2023/08/14 03:28:51;;;;;;;7.17;5.90;;;;;;;19.88;100.00;156474.69;4993031;28;20452;-77
2023/08/14 03:31:18;;;;;;;7.20;5.83;;;;;;;19.86;100.00;156468.19;5004908;28;20832;-78
2023/08/14 03:33:45;;;;;;;5.03;4.43;;;;;;;19.80;100.00;156452.59;5020478;28;20479;-77
2023/08/14 03:36:14;;;;;;;5.00;4.20;;;;;;;19.73;100.00;156434.28;5008939;28;20449;-77
2023/08/14 03:38:41;;;;;;;4.60;4.20;;;;;;;19.72;100.00;156431.72;5012795;28;20462;-77
2023/08/14 03:41:08;;;;;;;4.90;4.40;;;;;;;19.78;100.00;156447.31;5008799;28;20560;-77
2023/08/14 03:43:36;;;;;;;4.47;4.07;;;;;;;19.79;100.00;156451.28;5042836;28;20478;-77
2023/08/14 03:46:03;;;;;;;5.67;5.17;;;;;;;19.81;100.00;156455.16;5000513;28;20493;-77
2023/08/14 03:48:30;;;;;;;5.50;5.00;;;;;;;19.77;100.00;156446.06;5027851;28;20456;-77
2023/08/14 03:50:56;;;;;;;6.20;5.23;;;;;;;19.73;100.00;156434.28;5032347;28;20878;-77
2023/08/14 03:53:23;;;;;;;5.63;5.07;;;;;;;19.70;100.00;156427.78;5023880;28;20455;-77
2023/08/14 03:55:49;;;;;;;4.53;4.13;;;;;;;19.63;100.00;156408.22;5041187;28;20470;-77
2023/08/14 03:58:16;;;;;;;5.30;4.13;;;;;;;19.60;100.00;156401.72;5034854;28;20535;-77
2023/08/14 04:00:46;;;;;;;5.47;4.80;;;;;;;19.58;100.00;156395.19;5017937;28;20451;-77
2023/08/14 04:03:14;;;;;;;6.63;5.00;;;;;;;19.56;100.00;156390.00;5037784;28;21085;-77
2023/08/14 04:05:41;;;;;;;5.90;5.40;;;;;;;19.53;100.00;156382.16;5026326;28;20452;-77
2023/08/14 04:08:08;;;;;;;5.47;5.07;;;;;;;19.53;100.00;156382.16;5024146;28;20478;-79
2023/08/14 04:10:34;;;;;;;6.20;5.60;;;;;;;19.50;100.00;156375.66;5006075;28;20483;-79
2023/08/14 04:13:01;;;;;;;6.50;5.60;;;;;;;19.51;100.00;156378.28;5009781;28;20573;-79
2023/08/14 04:15:28;;;;;;;6.17;5.57;;;;;;;19.51;100.00;156376.97;4993440;28;20878;-79
2023/08/14 04:17:56;;;;;;;6.00;5.50;;;;;;;19.52;100.00;156379.53;5029766;28;20460;-79
2023/08/14 04:20:22;;;;;;;15.63;5.30;;;;;;;19.52;100.00;156379.53;5023486;28;20793;-79
2023/08/14 04:22:49;;;;;;;8.03;6.23;;;;;;;19.50;100.00;156374.34;4992793;28;20444;-79
2023/08/14 04:25:18;;;;;;;7.97;5.43;;;;;;;19.51;100.00;156376.97;5014194;28;20460;-79
2023/08/14 04:27:45;;;;;;;6.13;5.00;;;;;;;19.48;100.00;156369.13;5004403;28;20850;-79
2023/08/14 04:30:12;;;;;;;7.33;5.17;;;;;;;19.45;100.00;156362.63;5043359;28;20546;-79
2023/08/14 04:32:40;;;;;;;6.10;5.50;;;;;;;19.46;100.00;156363.94;5034024;28;21005;-79
2023/08/14 04:35:09;;;;;;;5.37;4.87;;;;;;;19.48;100.00;156370.44;5023061;28;20467;-79
2023/08/14 04:37:36;;;;;;;5.00;4.50;;;;;;;19.46;100.00;156365.19;5016454;28;20549;-79
2023/08/14 04:40:04;;;;;;;5.40;4.90;;;;;;;19.44;100.00;156361.31;5013280;28;20471;-79
2023/08/14 04:42:31;;;;;;;5.30;4.80;;;;;;;19.39;100.00;156346.97;5014732;28;20478;-79
2023/08/14 04:44:58;;;;;;;4.80;4.40;;;;;;;19.38;100.00;156345.66;5018939;28;20498;-79
2023/08/14 04:47:25;;;;;;;4.40;4.00;;;;;;;19.37;100.00;156341.72;5049108;28;20559;-79
2023/08/14 04:49:52;;;;;;;5.80;5.20;;;;;;;19.34;100.00;156333.88;5029494;28;20487;-79
2023/08/14 04:52:22;;;;;;;4.90;4.20;;;;;;;19.39;100.00;156348.28;5046167;28;20467;-79
2023/08/14 04:54:50;;;;;;;7.03;5.00;;;;;;;19.38;100.00;156344.34;5027411;28;20536;-79
2023/08/14 04:57:17;;;;;;;5.10;4.60;;;;;;;19.35;100.00;156336.50;5018890;28;20950;-79
2023/08/14 04:59:44;;;;;;;5.80;4.70;;;;;;;19.37;100.00;156341.72;5028684;28;20541;-79
2023/08/14 05:02:11;;;;;;;5.80;5.17;;;;;;;19.41;100.00;156352.16;5012042;28;20546;-79
2023/08/14 05:04:38;;;;;;;6.30;4.63;;;;;;;19.41;100.00;156353.47;5030092;28;20474;-79
2023/08/14 05:07:05;;;;;;;5.30;4.80;;;;;;;19.47;100.00;156366.50;5015458;28;20470;-77
2023/08/14 05:09:33;;;;;;;4.97;4.57;;;;;;;19.50;100.00;156375.66;5028615;28;20454;-75
2023/08/14 05:12:01;;;;;;;5.87;4.60;;;;;;;19.49;100.00;156373.03;5026249;28;20458;-75
2023/08/14 05:14:27;;;;;;;5.30;4.67;;;;;;;19.47;100.00;156367.81;5025747;28;20452;-75
2023/08/14 05:16:54;;;;;;;5.43;4.53;;;;;;;19.51;100.00;156376.97;5029954;28;20463;-75
2023/08/14 05:19:21;;;;;;;5.27;4.63;;;;;;;19.57;100.00;156392.56;5027597;28;20469;-75
2023/08/14 05:21:48;;;;;;;5.53;5.03;;;;;;;19.63;100.00;156409.53;5034570;28;20469;-75
2023/08/14 05:24:15;;;;;;;5.13;4.63;;;;;;;19.82;100.00;156457.78;5013457;28;20463;-74
2023/08/14 05:26:43;;;;;;;4.77;4.37;;;;;;;20.10;100.00;156530.78;5045501;28;20455;-75
2023/08/14 05:29:10;;;;;;;5.10;4.50;;;;;;;20.31;100.00;156584.31;5028302;28;20448;-74
2023/08/14 05:31:37;;;;;;;4.80;4.40;;;;;;;20.37;100.00;156599.97;5045858;28;20458;-75
2023/08/14 05:34:04;;;;;;;5.03;4.50;;;;;;;20.37;100.00;156601.28;5047214;28;20828;-74
2023/08/14 05:36:30;;;;;;;5.43;4.10;;;;;;;20.46;100.00;156623.47;5026308;28;20565;-75
2023/08/14 05:38:57;;;;;;;5.53;5.03;;;;;;;20.67;100.00;156676.94;5024968;28;20464;-74
2023/08/14 05:41:23;;;;;;;5.50;4.80;;;;;;;20.89;100.00;156734.38;5046875;28;20949;-75
2023/08/14 05:43:51;;;;;;;5.63;5.13;;;;;;;21.04;100.00;156773.50;5029548;28;20467;-74
2023/08/14 05:46:19;;;;;;;5.50;5.00;;;;;;;21.13;100.00;156797.00;5045477;28;20466;-74
2023/08/14 05:48:45;;;;;;;5.37;4.87;;;;;;;21.16;100.00;156806.16;5046141;28;20462;-75
2023/08/14 05:51:14;;;;;;;5.70;5.07;;;;;;;21.18;100.00;156810.09;5047678;28;20470;-75
2023/08/14 05:53:43;;;;;;;6.30;5.70;;;;;;;21.39;100.00;156863.59;5029057;28;20436;-75
2023/08/14 05:56:09;;;;;;;5.60;5.10;;;;;;;21.52;100.00;156897.53;5028625;28;20481;-75
2023/08/14 05:58:36;;;;;;;5.50;5.10;;;;;;;21.47;100.00;156885.75;5045929;28;20458;-75
2023/08/14 06:01:04;;;;;;;5.90;5.40;;;;;;;21.39;100.00;156864.91;5028426;28;20455;-77
2023/08/14 06:03:30;;;;;;;6.07;5.57;;;;;;;21.29;100.00;156837.50;5027614;28;20447;-75
2023/08/14 06:05:57;;;;;;;5.10;4.70;;;;;;;21.18;100.00;156810.09;5042573;28;20458;-76
2023/08/14 06:08:23;;;;;;;5.43;4.80;;;;;;;21.06;100.00;156778.69;5043921;28;20457;-76
2023/08/14 06:10:50;;;;;;;6.57;5.33;;;;;;;21.00;100.00;156763.03;5043379;28;20463;-76
2023/08/14 06:13:31;;;;;;;5.73;5.30;;;;;;;20.97;100.00;156756.50;5027835;28;20458;-76
2023/08/14 06:15:58;;;;;;;6.27;5.67;;;;;;;20.96;100.00;156753.94;5046332;28;20458;-76
2023/08/14 06:18:26;;;;;;;6.20;5.60;;;;;;;20.97;100.00;156755.25;5046146;28;20450;-76
2023/08/14 06:20:53;;;;;;;6.07;5.57;;;;;;;20.95;100.00;156750.00;5028884;28;20462;-75
2023/08/14 06:23:19;;;;;;;6.47;5.87;;;;;;;20.91;100.00;156739.56;5027522;28;20447;-76
2023/08/14 06:25:46;;;;;;;6.67;6.07;;;;;;;20.90;100.00;156736.94;5037326;28;20483;-76
2023/08/14 06:28:12;;;;;;;6.70;5.47;;;;;;;20.86;100.00;156726.53;5045580;28;20454;-76
2023/08/14 06:30:39;;;;;;;7.27;5.60;;;;;;;20.82;100.00;156717.38;5046000;28;20478;-76
2023/08/14 06:33:05;;;;;;;6.30;5.70;;;;;;;20.86;100.00;156726.53;5045397;28;20490;-76
2023/08/14 06:35:33;;;;;;;6.37;5.77;;;;;;;20.85;100.00;156725.22;5028162;28;20451;-76
2023/08/14 06:38:00;;;;;;;7.00;6.30;;;;;;;20.82;100.00;156716.06;5042942;28;20482;-75
2023/08/14 06:40:26;;;;;;;7.03;6.17;;;;;;;20.90;100.00;156736.94;5044219;28;20481;-76
2023/08/14 06:42:53;;;;;;;6.80;6.20;;;;;;;21.12;100.00;156794.44;5039157;28;20747;-76
2023/08/14 06:45:21;;;;;;;6.67;5.67;;;;;;;21.29;100.00;156838.78;5037493;28;20977;-76
2023/08/14 06:47:48;;;;;;;8.50;6.67;;;;;;;21.59;100.00;156917.13;5027144;28;20821;-75
2023/08/14 06:50:15;;;;;;;8.93;6.17;;;;;;;21.81;100.00;156974.56;5026555;28;20833;-75
2023/08/14 06:52:42;;;;;;;6.77;6.17;;;;;;;22.12;100.00;157052.94;5041520;28;20448;-76
2023/08/14 06:55:09;;;;;;;6.13;5.57;;;;;;;22.42;100.00;157131.31;5037356;28;20461;-75
2023/08/14 06:57:36;;;;;;;7.00;6.30;;;;;;;22.58;100.00;157173.13;5035753;28;21122;-75
2023/08/14 07:00:06;;;;;;;5.93;5.43;;;;;;;22.50;100.00;157152.22;5022295;28;20466;-76
2023/08/14 07:02:33;;;;;;;5.60;5.07;;;;;;;22.52;100.00;157156.13;5044685;28;20557;-77
2023/08/14 07:05:00;;;;;;;6.50;5.90;;;;;;;22.63;100.00;157186.25;5027208;28;20495;-78
2023/08/14 07:07:26;;;;;;;5.80;5.20;;;;;;;22.82;100.00;157234.59;5010267;28;20459;-77
2023/08/14 07:09:54;;;;;;;5.23;4.73;;;;;;;23.05;100.00;157294.69;5036805;28;20777;-78
2023/08/14 07:12:21;;;;;;;5.07;4.60;;;;;;;23.28;100.00;157354.78;5031805;28;20459;-78
2023/08/14 07:14:47;;;;;;;5.80;4.90;;;;;;;23.56;100.00;157428.00;5028003;28;21012;-78
2023/08/14 07:17:14;;;;;;;5.50;5.00;;;;;;;23.77;100.00;157480.31;5038709;28;20470;-78
2023/08/14 07:19:40;;;;;;;5.83;5.23;;;;;;;23.95;100.00;157528.69;5045144;28;20852;-78
2023/08/14 07:22:07;;;;;;;4.47;4.07;;;;;;;24.19;100.00;157590.22;5024786;28;20451;-78
2023/08/14 07:24:34;;;;;;;4.90;4.50;;;;;;;24.38;100.00;157638.59;5026999;28;20526;-78
2023/08/14 07:27:01;;;;;;;5.00;4.57;;;;;;;24.57;100.00;157689.59;5043482;28;20462;-78
2023/08/14 07:29:28;;;;;;;5.27;4.73;;;;;;;24.69;100.00;157721.00;5041930;28;20508;-78
2023/08/14 07:31:55;;;;;;;5.10;4.10;;;;;;;24.82;100.00;157753.75;5037693;28;20834;-78
2023/08/14 07:34:21;;;;;;;5.43;3.90;;;;;;;24.99;100.00;157796.94;5045159;28;21278;-78
2023/08/14 07:36:48;;;;;;;5.23;4.40;;;;;;;25.07;100.00;157819.16;5035409;28;20997;-78
2023/08/14 07:39:14;;;;;;;5.27;4.60;;;;;;;25.14;100.00;157836.19;5045454;28;20450;-78
2023/08/14 07:41:41;;;;;;;5.00;4.50;;;;;;;25.22;100.00;157858.44;5027091;28;20512;-78
2023/08/14 07:44:09;;;;;;;5.60;4.27;;;;;;;25.39;100.00;157901.59;5026155;28;20453;-78
2023/08/14 07:46:35;;;;;;;4.70;4.20;;;;;;;25.57;99.63;157948.78;5026019;28;20455;-78
2023/08/14 07:49:02;;;;;;;5.27;4.17;;;;;;;25.73;100.00;157990.69;5038294;28;21010;-78
2023/08/14 07:51:28;;;;;;;4.80;4.40;;;;;;;25.85;100.00;158020.78;5024437;28;20462;-78
2023/08/14 07:53:55;;;;;;;6.00;4.30;;;;;;;25.93;100.00;158041.72;5024689;28;20471;-78
2023/08/14 07:56:21;;;;;;;4.60;4.20;;;;;;;26.05;97.03;158073.16;5037368;28;20455;-78
2023/08/14 07:58:48;;;;;;;4.00;3.70;;;;;;;26.24;93.99;158122.94;5037840;28;20870;-78
2023/08/14 08:01:17;;;;;;;4.30;3.90;;;;;;;26.52;87.95;158196.31;5022678;28;20886;-79
2023/08/14 08:03:43;;;;;;;4.17;3.33;;;;;;;26.72;89.20;158246.03;5040839;28;20458;-79
2023/08/14 08:06:10;;;;;;;4.60;3.40;;;;;;;26.81;86.07;158269.69;5025662;28;20500;-79
2023/08/14 08:08:37;;;;;;;4.03;3.40;;;;;;;27.01;88.08;158323.38;5028170;28;20985;-79
2023/08/14 08:11:03;;;;;;;3.50;3.20;;;;;;;27.14;84.68;158357.44;5041268;28;20493;-79
2023/08/14 08:13:30;;;;;;;3.40;3.10;;;;;;;27.33;85.32;158405.94;5036618;28;20809;-80
2023/08/14 08:15:56;;;;;;;3.60;3.30;;;;;;;27.44;83.06;158434.81;5038700;28;20457;-80
2023/08/14 08:18:24;;;;;;;5.63;3.07;;;;;;;27.62;78.43;158482.00;5047751;28;20454;-78
2023/08/14 08:20:51;;;;;;;5.37;3.33;;;;;;;27.73;77.52;158510.84;5024426;28;20468;-77
2023/08/14 08:23:18;;;;;;;3.50;3.20;;;;;;;27.78;77.01;158523.94;5025752;28;20462;-77
2023/08/14 08:25:44;;;;;;;3.97;3.67;;;;;;;27.93;80.42;158561.97;5046029;28;20807;-77
2023/08/14 08:28:11;;;;;;;4.40;4.00;;;;;;;28.04;80.59;158589.56;5010614;28;20469;-77
2023/08/14 08:30:38;;;;;;;4.47;3.67;;;;;;;28.06;81.05;158596.13;5026127;28;20461;-77
2023/08/14 08:33:05;;;;;;;3.50;3.20;;;;;;;28.16;81.40;158621.00;5046429;28;20905;-78
2023/08/14 08:35:33;;;;;;;4.17;3.40;;;;;;;28.34;80.75;158668.19;5047534;28;20450;-78
2023/08/14 08:37:59;;;;;;;4.13;3.73;;;;;;;28.44;77.51;158694.41;5039963;28;20470;-78
2023/08/14 08:40:26;;;;;;;4.13;3.73;;;;;;;28.49;76.69;158707.53;5043603;28;20481;-78
2023/08/14 08:42:53;;;;;;;3.77;3.47;;;;;;;28.44;78.12;158693.09;5047540;28;20450;-78
2023/08/14 08:45:21;;;;;;;4.40;4.00;;;;;;;28.51;78.29;158712.81;5047667;28;20482;-78
2023/08/14 08:47:49;;;;;;;5.00;4.00;;;;;;;28.63;78.29;158742.97;5027420;28;20454;-78
2023/08/14 08:50:16;;;;;;;3.83;3.53;;;;;;;28.76;77.56;158778.41;5045460;28;20932;-78
2023/08/14 08:52:44;;;;;;;5.00;4.03;;;;;;;28.74;76.28;158771.84;5048522;28;20450;-78
2023/08/14 08:55:11;;;;;;;4.60;4.20;;;;;;;28.87;78.69;158807.25;5030358;28;20889;-78
2023/08/14 08:57:39;;;;;;;4.60;3.90;;;;;;;28.91;73.27;158817.72;5028364;28;20467;-78
2023/08/14 09:00:07;;;;;;;6.77;4.63;;;;;;;29.04;76.25;158849.25;5030084;28;20447;-78
2023/08/14 09:02:34;;;;;;;4.83;4.27;;;;;;;29.19;74.98;158888.59;5026864;28;20442;-78
2023/08/14 09:05:01;;;;;;;5.30;4.90;;;;;;;29.22;75.05;158896.50;5047688;28;20482;-78
2023/08/14 09:07:27;;;;;;;5.10;4.60;;;;;;;29.19;75.27;158888.59;5040599;28;20443;-78
2023/08/14 09:09:55;;;;;;;5.20;4.80;;;;;;;29.20;77.51;158891.22;5047437;28;20450;-78
2023/08/14 09:12:22;;;;;;;4.73;4.33;;;;;;;29.08;80.94;158859.72;5039175;28;20459;-78
2023/08/14 09:15:02;;;;;;;9.60;4.40;;;;;;;29.07;75.93;158858.38;5026154;28;20458;-77
2023/08/14 09:17:29;;;;;;;4.83;4.33;;;;;;;28.95;72.60;158826.94;5049866;28;20447;-77
2023/08/14 09:19:55;;;;;;;4.83;4.43;;;;;;;28.94;73.69;158824.28;5047152;28;20485;-78
2023/08/14 09:22:22;;;;;;;5.70;4.57;;;;;;;28.86;70.59;158804.63;5026310;28;20455;-78
2023/08/14 09:24:49;;;;;;;4.83;4.43;;;;;;;28.80;72.93;158788.91;5038343;28;20506;-78
2023/08/14 09:27:16;;;;;;;5.57;4.60;;;;;;;28.86;71.12;158804.63;5046181;28;20640;-78
2023/08/14 09:29:43;;;;;;;4.43;4.03;;;;;;;28.91;72.79;158817.72;5027631;28;20455;-78
2023/08/14 09:32:11;;;;;;;6.47;4.20;;;;;;;28.97;71.16;158833.50;5045182;28;20969;-77
2023/08/14 09:34:37;;;;;;;5.20;4.73;;;;;;;29.03;69.88;158846.59;5038144;28;20481;-78
2023/08/14 09:37:04;;;;;;;5.37;4.97;;;;;;;29.04;77.71;158849.25;5044774;28;20466;-78
2023/08/14 09:39:31;;;;;;;4.87;4.40;;;;;;;28.81;72.96;158790.19;5047604;28;20450;-78
2023/08/14 09:41:58;;;;;;;5.87;5.37;;;;;;;28.80;70.75;158788.91;5028311;28;20450;-78
2023/08/14 09:44:26;;;;;;;4.83;4.30;;;;;;;28.84;71.81;158798.06;5027251;28;20460;-78
2023/08/14 09:46:54;;;;;;;5.30;4.80;;;;;;;28.95;71.07;158828.25;5046352;28;20605;-78
2023/08/14 09:49:21;;;;;;;8.03;5.00;;;;;;;28.96;70.33;158830.84;5042680;28;20949;-77
2023/08/14 09:51:55;;;;;;;5.20;4.70;;;;;;;28.98;70.59;158836.13;5045265;28;20450;-78
2023/08/14 09:54:32;;;;;;;5.83;4.80;;;;;;;29.04;69.91;158850.56;5046150;28;20463;-77
2023/08/14 09:57:00;;;;;;;5.20;4.70;;;;;;;29.11;71.47;158867.59;5037848;28;20524;-78
2023/08/14 09:59:28;;;;;;;4.90;4.50;;;;;;;29.13;74.54;158874.16;5027855;28;20884;-78
2023/08/14 10:01:55;;;;;;;5.50;5.00;;;;;;;29.14;74.88;158875.47;5044599;28;20459;-78
2023/08/14 10:04:23;;;;;;;6.10;5.50;;;;;;;29.21;71.14;158893.88;5046124;28;20443;-78
2023/08/14 10:06:51;;;;;;;5.23;4.73;;;;;;;29.13;71.65;158874.16;5021679;28;20475;-77
2023/08/14 10:09:18;;;;;;;5.30;4.80;;;;;;;29.13;77.13;158874.16;5028261;28;20504;-78
2023/08/14 10:11:45;;;;;;;5.10;4.70;;;;;;;29.06;76.11;158854.47;5026698;28;20451;-78
2023/08/14 10:14:14;;;;;;;5.43;4.73;;;;;;;28.98;75.91;158836.13;5028465;28;20451;-77
2023/08/14 10:16:42;;;;;;;5.47;5.07;;;;;;;29.01;82.19;158841.38;5021934;28;20565;-77
2023/08/14 10:19:13;;;;;;;5.27;4.77;;;;;;;28.91;75.19;158817.72;5038495;28;20451;-77
2023/08/14 10:21:41;;;;;;;5.63;5.13;;;;;;;29.06;73.57;158855.81;5042176;28;20470;-78
2023/08/14 10:24:08;;;;;;;6.20;5.13;;;;;;;29.20;70.82;158891.22;5045275;28;20451;-78
2023/08/14 10:26:35;;;;;;;5.43;4.93;;;;;;;29.23;70.29;158900.44;5027465;28;20864;-77
2023/08/14 10:29:01;;;;;;;5.63;4.77;;;;;;;29.25;75.84;158905.72;5043524;28;20451;-78
2023/08/14 10:31:30;;;;;;;5.87;5.37;;;;;;;29.27;72.66;158909.63;5042315;28;20557;-78
2023/08/14 10:33:59;;;;;;;5.50;5.10;;;;;;;29.40;71.61;158943.75;5027166;28;20502;-78
2023/08/14 10:36:27;;;;;;;5.20;4.80;;;;;;;29.43;71.20;158951.63;5037776;28;20972;-78
2023/08/14 10:39:06;;;;;;;5.23;4.73;;;;;;;29.53;69.98;158977.84;5025422;28;20465;-78
2023/08/14 10:41:34;;;;;;;5.30;4.90;;;;;;;29.70;69.17;159021.16;5045385;28;20516;-78
2023/08/14 10:44:05;;;;;;;5.90;5.37;;;;;;;29.76;68.42;159038.19;5027963;28;20524;-78
2023/08/14 10:46:31;;;;;;;5.60;5.10;;;;;;;29.68;69.09;159017.19;5043109;28;21020;-78
2023/08/14 10:49:01;;;;;;;5.50;5.10;;;;;;;29.63;68.77;159004.09;5044640;28;20451;-77
2023/08/14 10:51:31;;;;;;;7.20;5.30;;;;;;;29.65;68.59;159009.38;5027759;28;20465;-78
2023/08/14 10:54:03;;;;;;;5.50;5.10;;;;;;;29.58;71.71;158990.97;5027325;28;20530;-78
2023/08/14 10:56:41;;;;;;;6.37;5.77;;;;;;;29.60;69.31;158996.19;5025188;28;20554;-78
2023/08/14 10:59:22;;;;;;;5.63;5.23;;;;;;;29.63;69.72;159004.09;5044408;28;20454;-78
2023/08/14 11:01:53;;;;;;;5.87;5.37;;;;;;;29.68;69.23;159017.19;5025522;28;20458;-78
2023/08/14 11:04:21;;;;;;;6.20;5.60;;;;;;;29.74;69.60;159032.97;5043985;28;20442;-78
2023/08/14 11:07:11;;;;;;;6.17;5.60;;;;;;;29.68;68.47;159017.19;5044272;28;20483;-78
2023/08/14 11:09:38;;;;;;;6.13;5.53;;;;;;;29.62;72.98;159000.16;5033617;28;20668;-78
2023/08/14 11:12:07;;;;;;;5.73;5.27;;;;;;;29.53;70.16;158977.84;5036348;28;20952;-78
2023/08/14 11:14:38;;;;;;;6.27;5.77;;;;;;;29.55;73.18;158983.09;5019195;28;20451;-78
2023/08/14 11:17:05;;;;;;;5.60;5.20;;;;;;;29.55;71.18;158983.09;5044450;28;20454;-78
2023/08/14 11:19:35;;;;;;;5.90;5.40;;;;;;;29.66;67.38;159010.66;5028702;28;20494;-78